Thunder radar more information blitzortung!


Radar de pluja more information rain snow radar


Visita la nostra xarxa de llocs de meteo:

Template documentation
and downloads

And another site



Extreme low temperature From: 23-02-2018 00:00 Until: 09:59 warning for: Extreme low temperature Level: Yellow info button

Pagina Historial Weather Underground text

Diari Resum January 20, 2016 Unitats:  Mètric    Imperial   Tant
« Previous Dia
SegĂźent Dia »
Diari Setmana Mensual Anual Personalitzada
  Maxima: Minima: Media:
Temperatura: -17.8 °C -14.8 °C -12.1 °C
Punt de rosada: -17.8 °C -18.7 °C -17 °C
Humitat: Humidity % 48 % 54 %
Wind Speed: 0 km/h 0 km/h 5.5 km/h
RĂ fegues de vent: 0 km/h - -
Vent:- - SE
Pression baro: 0 hPa 34361.1 hPa -
Precipitacions: 0 mm    
Historical Graphs
 
 
Dades de taula per January 20, 2016
Temps Temperatura Punt de rosada Pression baro Vent Wind Speed RĂ fegues de vent Humitat Rainfall Rate (Hourly)
-17.8 °C -17.8 °C 0 hPa Calm     Humidity % 0 mm
11:07 -13.7 °C -17.3 °C 34496.6 hPa NE 6 km/h 6 km/h 64 % 0 mm
11:12 -13.6 °C -17.1 °C 34496.6 hPa ENE 5.1 km/h 5.1 km/h 64 % 0 mm
11:17 -13.4 °C -16.9 °C 34496.6 hPa NE 6 km/h 6 km/h 64 % 0 mm
11:22 -13.4 °C -17.1 °C 34496.6 hPa NNE 11.9 km/h 11.9 km/h 63 % 0 mm
11:27 -13.4 °C -17.1 °C 34496.6 hPa NE 11.9 km/h 11.9 km/h 63 % 0 mm
11:38 -13.2 °C -17 °C 34462.7 hPa ENE 9 km/h 9 km/h 62 % 0 mm
11:43 -13.1 °C -16.9 °C 34462.7 hPa ENE 9 km/h 9 km/h 62 % 0 mm
11:48 -13 °C -16.8 °C 34462.7 hPa ENE 9 km/h 9 km/h 62 % 0 mm
11:53 -12.8 °C -16.6 °C 34462.7 hPa NNE 9 km/h 9 km/h 62 % 0 mm
11:58 -12.7 °C -16.7 °C 34462.7 hPa ENE 6 km/h 6 km/h 61 % 0 mm
12:03 -12.6 °C -16.5 °C 34462.7 hPa NE 9 km/h 9 km/h 61 % 0 mm
12:08 -12.4 °C -16.3 °C 34496.6 hPa ENE 11.9 km/h 11.9 km/h 61 % 0 mm
12:13 -12.4 °C -16.3 °C 34496.6 hPa NNE 9.3 km/h 9.3 km/h 61 % 0 mm
12:18 -12.3 °C -16.4 °C 34496.6 hPa ENE 15 km/h 15 km/h 60 % 0 mm
12:23 -12.2 °C -16.5 °C 34462.7 hPa NE 12.2 km/h 12.2 km/h 59 % 0 mm
12:28 -12.1 °C -16.3 °C 34462.7 hPa NE 11.9 km/h 11.9 km/h 59 % 0 mm
12:33 -12.1 °C -16.3 °C 34462.7 hPa NE 9 km/h 9 km/h 59 % 0 mm
12:38 -11.9 °C -16.3 °C 34462.7 hPa NNE 15 km/h 15 km/h 58 % 0 mm
12:43 -11.9 °C -16.3 °C 34462.7 hPa NE 11.9 km/h 11.9 km/h 58 % 0 mm
12:48 -11.8 °C -16.3 °C 34462.7 hPa ENE 14 km/h 14 km/h 57 % 0 mm
12:58 -11.7 °C -16.2 °C 34428.8 hPa North 9 km/h 9 km/h 57 % 0 mm
13:03 -11.4 °C -16 °C 34428.8 hPa NE 9.8 km/h 9.8 km/h 57 % 0 mm
13:08 -11.4 °C -16.1 °C 34428.8 hPa ENE 9 km/h 9 km/h 56 % 0 mm
13:13 -11.3 °C -16 °C 34428.8 hPa ENE 8 km/h 8 km/h 56 % 0 mm
13:18 -11.2 °C -15.9 °C 34428.8 hPa NNE 7.6 km/h 7.6 km/h 56 % 0 mm
13:23 -11.1 °C -15.9 °C 34462.7 hPa NE 9 km/h 9 km/h 55 % 0 mm
13:28 -11 °C -15.9 °C 34462.7 hPa NE 6 km/h 6 km/h 55 % 0 mm
13:38 -10.8 °C -15.9 °C 34462.7 hPa NE 9 km/h 9 km/h 54 % 0 mm
13:43 -10.8 °C -15.7 °C 34462.7 hPa ENE 9 km/h 9 km/h 55 % 0 mm
13:48 -10.7 °C -15.8 °C 34462.7 hPa NW 9 km/h 9 km/h 54 % 0 mm
13:53 -10.7 °C -15.9 °C 34428.8 hPa NE 9 km/h 9 km/h 53 % 0 mm
14:03 -10.7 °C -15.7 °C 34428.8 hPa NNE 6 km/h 6 km/h 54 % 0 mm
14:08 -10.7 °C -15.9 °C 34428.8 hPa NE 11.9 km/h 11.9 km/h 53 % 0 mm
14:13 -10.7 °C -16.1 °C 34428.8 hPa East 9 km/h 9 km/h 52 % 0 mm
14:18 -10.7 °C -15.9 °C 34428.8 hPa NNE 9 km/h 9 km/h 53 % 0 mm
14:23 -10.6 °C -15.8 °C 34428.8 hPa ENE 7.6 km/h 7.6 km/h 53 % 0 mm
14:28 -10.5 °C -15.9 °C 34428.8 hPa WNW 3.7 km/h 4.2 km/h 52 % 0 mm
14:33 -10.4 °C -15.8 °C 34428.8 hPa NE 6 km/h 6 km/h 52 % 0 mm
14:43 -10.4 °C -15.8 °C 34395 hPa East 5.1 km/h 5.1 km/h 52 % 0 mm
14:48 -10.4 °C -15.9 °C 34395 hPa South 9.3 km/h 9.3 km/h 51 % 0 mm
14:53 -10.2 °C -15.7 °C 34395 hPa NE 11.9 km/h 11.9 km/h 51 % 0 mm
14:58 -10.2 °C -15.7 °C 34395 hPa ENE 6 km/h 6 km/h 51 % 0 mm
15:03 -10.2 °C -15.7 °C 34395 hPa NE 3.7 km/h 3.7 km/h 51 % 0 mm
15:08 -10.2 °C -15.7 °C 34395 hPa SE 7.6 km/h 7.6 km/h 51 % 0 mm
15:13 -10 °C -15.6 °C 34395 hPa ENE 11.9 km/h 11.9 km/h 51 % 0 mm
15:18 -9.9 °C -15.5 °C 34395 hPa South 9 km/h 9 km/h 51 % 0 mm
15:23 -9.9 °C -15.6 °C 34395 hPa SSE 6 km/h 6 km/h 50 % 0 mm
15:28 -9.9 °C -15.7 °C 34395 hPa NE 3.7 km/h 3.7 km/h 50 % 0 mm
15:33 -10 °C -15.7 °C 34395 hPa ENE 9 km/h 9 km/h 50 % 0 mm
15:38 -10 °C -15.7 °C 34395 hPa ENE 11.9 km/h 11.9 km/h 50 % 0 mm
15:43 -10 °C -15.7 °C 34395 hPa ENE 11.9 km/h 11.9 km/h 50 % 0 mm
15:48 -10 °C -15.7 °C 34395 hPa East 9.3 km/h 9.3 km/h 50 % 0 mm
15:53 -10.1 °C -15.8 °C 34395 hPa ENE 6 km/h 6 km/h 50 % 0 mm
15:58 -10.1 °C -15.8 °C 34395 hPa ESE 11.9 km/h 11.9 km/h 50 % 0 mm
16:03 -10.1 °C -15.9 °C 34395 hPa East 11.9 km/h 11.9 km/h 49 % 0 mm
16:13 -10.2 °C -16 °C 34395 hPa NNE 6 km/h   49 % 0 mm
16:18 -10.1 °C -15.9 °C 34395 hPa NE 3.1 km/h 3.1 km/h 49 % 0 mm
16:23 -10.2 °C -16 °C 34395 hPa ENE 6 km/h 6 km/h 49 % 0 mm
16:33 -10.1 °C -15.9 °C 34395 hPa East 6 km/h 6 km/h 49 % 0 mm
16:38 -10.1 °C -15.9 °C 34395 hPa East 6 km/h 6 km/h 49 % 0 mm
16:43 -10.1 °C -15.9 °C 34395 hPa ENE 6 km/h 6 km/h 49 % 0 mm
16:48 -10.1 °C -15.9 °C 34395 hPa ESE 8.5 km/h 8.5 km/h 49 % 0 mm
16:53 -10.2 °C -16 °C 34395 hPa East 3.1 km/h   49 % 0 mm
16:58 -10.2 °C -16.1 °C 34395 hPa East 3.1 km/h   49 % 0 mm
17:03 -10.2 °C -16.1 °C 34395 hPa ENE 3.1 km/h 3.1 km/h 49 % 0 mm
17:13 -10.2 °C -16.2 °C 34395 hPa ENE 3.1 km/h   48 % 0 mm
17:18 -10.3 °C -16.3 °C 34395 hPa ENE 3.1 km/h 3.1 km/h 48 % 0 mm
17:23 -10.3 °C -16.3 °C 34361.1 hPa NNE 3.1 km/h   48 % 0 mm
17:28 -10.3 °C -16.2 °C 34361.1 hPa WSW 5.6 km/h 5.6 km/h 49 % 0 mm
17:33 -10.6 °C -16.4 °C 34361.1 hPa SW 9 km/h 9 km/h 49 % 0 mm
17:43 -10.9 °C -16.5 °C 34395 hPa SW 4.2 km/h 4.2 km/h 50 % 0 mm
17:48 -10.9 °C -16.6 °C 34395 hPa SW 6 km/h 6 km/h 50 % 0 mm
17:53 -11.1 °C -16.5 °C 34395 hPa SW 6.3 km/h 6.3 km/h 51 % 0 mm
17:58 -11.2 °C -16.7 °C 34395 hPa SW 9.3 km/h 9.3 km/h 51 % 0 mm
18:03 -11.3 °C -16.7 °C 34395 hPa WSW 9 km/h 9 km/h 51 % 0 mm
18:08 -11.4 °C -16.7 °C 34428.8 hPa SW 9.3 km/h 9.3 km/h 52 % 0 mm
18:13 -11.4 °C -16.7 °C 34428.8 hPa WSW 9 km/h 9 km/h 52 % 0 mm
18:19 -11.6 °C -16.8 °C 34428.8 hPa WSW 6.8 km/h 6.8 km/h 52 % 0 mm
18:24 -11.6 °C -16.9 °C 34428.8 hPa WSW 3.7 km/h 4.2 km/h 52 % 0 mm
18:29 -11.7 °C -17 °C 34428.8 hPa WSW 6 km/h 6 km/h 52 % 0 mm
18:34 -11.8 °C -17.1 °C 34428.8 hPa WSW 6.3 km/h 6.3 km/h 52 % 0 mm
18:39 -11.8 °C -17.1 °C 34428.8 hPa WSW 3.7 km/h 3.7 km/h 52 % 0 mm
18:44 -11.8 °C -17.1 °C 34428.8 hPa WSW 6 km/h 6 km/h 52 % 0 mm
18:49 -11.9 °C -17.2 °C 34428.8 hPa WSW 3.1 km/h 3.1 km/h 52 % 0 mm
18:54 -12.1 °C -17.3 °C 34462.7 hPa WSW 6.8 km/h 6.8 km/h 52 % 0 mm
18:59 -12.1 °C -17.3 °C 34462.7 hPa WSW 6.3 km/h 6.3 km/h 52 % 0 mm
19:04 -12.1 °C -17.3 °C 34462.7 hPa WSW 3.7 km/h 3.7 km/h 52 % 0 mm
19:09 -12.2 °C -17.3 °C 34428.8 hPa WSW 3.1 km/h 3.7 km/h 53 % 0 mm
19:14 -12.2 °C -17.3 °C 34428.8 hPa WSW 3.7 km/h   53 % 0 mm
19:19 -12.3 °C -17.3 °C 34428.8 hPa WSW 6 km/h 6 km/h 53 % 0 mm
19:24 -12.3 °C -17.4 °C 34462.7 hPa WSW 6 km/h 6 km/h 53 % 0 mm
19:29 -12.3 °C -17.4 °C 34462.7 hPa WSW 3.1 km/h 3.1 km/h 53 % 0 mm
19:34 -12.3 °C -17.4 °C 34462.7 hPa WSW 3.1 km/h   53 % 0 mm
19:39 -12.4 °C -17.4 °C 34462.7 hPa WSW 6 km/h 6 km/h 53 % 0 mm
19:44 -12.4 °C -17.4 °C 34462.7 hPa WSW 6 km/h 6 km/h 53 % 0 mm
19:49 -12.4 °C -17.5 °C 34462.7 hPa WSW 6.3 km/h 6.3 km/h 53 % 0 mm
19:59 -12.7 °C -17.8 °C 34462.7 hPa WSW 6.3 km/h 6.3 km/h 53 % 0 mm
20:04 -12.8 °C -17.8 °C 34462.7 hPa WSW 3.1 km/h 3.1 km/h 53 % 0 mm
20:09 -12.8 °C -17.8 °C 34462.7 hPa WSW 6 km/h 6 km/h 53 % 0 mm
20:14 -12.8 °C -18 °C 34462.7 hPa WSW 6 km/h 6.3 km/h 52 % 0 mm
20:19 -12.9 °C -17.9 °C 34462.7 hPa WSW 6 km/h 6 km/h 53 % 0 mm
20:24 -13 °C -18 °C 34462.7 hPa WSW 3.1 km/h 3.7 km/h 53 % 0 mm
20:29 -13.1 °C -18.1 °C 34462.7 hPa NE 3.1 km/h 3.1 km/h 53 % 0 mm
20:34 -13.1 °C -18.1 °C 34462.7 hPa Calm     53 % 0 mm
20:39 -13.2 °C -18.2 °C 34462.7 hPa Calm     53 % 0 mm
20:44 -13.3 °C -18.3 °C 34462.7 hPa NE 3.1 km/h 3.1 km/h 53 % 0 mm
20:49 -13.3 °C -18.3 °C 34462.7 hPa Calm     53 % 0 mm
20:54 -13.4 °C -18.2 °C 34496.6 hPa Calm     54 % 0 mm
20:59 -13.5 °C -18.4 °C 34496.6 hPa Calm     54 % 0 mm
21:04 -13.6 °C -18.4 °C 34496.6 hPa NE 3.1 km/h 3.1 km/h 54 % 0 mm
21:09 -13.7 °C -18.5 °C 34462.7 hPa Calm     54 % 0 mm
21:14 -13.7 °C -18.6 °C 34462.7 hPa Calm     54 % 0 mm
21:19 -13.8 °C -18.6 °C 34462.7 hPa Calm     54 % 0 mm
21:24 -13.8 °C -18.7 °C 34496.6 hPa Calm     54 % 0 mm
21:29 -13.9 °C -18.6 °C 34496.6 hPa Calm     55 % 0 mm
21:34 -13.9 °C -18.7 °C 34496.6 hPa Calm     55 % 0 mm
21:39 -14 °C -18.7 °C 34496.6 hPa Calm     55 % 0 mm
21:44 -14.1 °C -18.7 °C 34496.6 hPa Calm     55 % 0 mm
21:49 -14.1 °C -18.7 °C 34496.6 hPa NE 3.7 km/h 3.7 km/h 55 % 0 mm
21:54 -14.1 °C -18.7 °C 34496.6 hPa Calm     56 % 0 mm
21:59 -14.2 °C -18.7 °C 34496.6 hPa Calm     56 % 0 mm
22:04 -14.2 °C -18.6 °C 34496.6 hPa Calm     57 % 0 mm
22:09 -14.2 °C -18.7 °C 34496.6 hPa WSW 6 km/h 6 km/h 56 % 0 mm
22:14 -14.2 °C -18.6 °C 34496.6 hPa Calm     57 % 0 mm
22:19 -14.2 °C -18.4 °C 34496.6 hPa Calm     58 % 0 mm
22:24 -14.2 °C -18.4 °C 34496.6 hPa Calm     58 % 0 mm
22:34 -14.1 °C -18.2 °C 34496.6 hPa NNE 3.1 km/h   59 % 0 mm
22:39 -14.2 °C -18.5 °C 34496.6 hPa Calm     58 % 0 mm
22:44 -14.3 °C -18.6 °C 34496.6 hPa Calm     58 % 0 mm
22:49 -14.3 °C -18.4 °C 34496.6 hPa NNE 3.1 km/h   59 % 0 mm
22:59 -14.4 °C -18.5 °C 34496.6 hPa Calm     59 % 0 mm
23:04 -14.4 °C -18.4 °C 34496.6 hPa Calm     60 % 0 mm
23:09 -14.4 °C -18.4 °C 34496.6 hPa Calm     60 % 0 mm
23:14 -14.5 °C -18.5 °C 34496.6 hPa Calm     60 % 0 mm
23:19 -14.6 °C -18.6 °C 34496.6 hPa Calm     60 % 0 mm
23:24 -14.7 °C -18.7 °C 34496.6 hPa Calm     60 % 0 mm
23:29 -14.7 °C -18.7 °C 34496.6 hPa Calm     60 % 0 mm
23:34 -14.7 °C -18.6 °C 34496.6 hPa Calm     61 % 0 mm
23:39 -14.7 °C -18.6 °C 34533.8 hPa Calm     61 % 0 mm
23:44 -14.8 °C -18.6 °C 34533.8 hPa Calm     61 % 0 mm
Meteo Sesrovires
Elogis d' Weather Underground - 3.25 mb

Guio original per  Jim McMurry - jmcmurry@mwt.net Adaptat per a la plantilla per  Wim van der Kuil - Leuven-Template.eu

Trobareu la nostra informacio del temps tambe a:

Weather Underground

AWEKAS